sensor_id;sensor_type;location;lat;lon;timestamp;P1;durP1;ratioP1;P2;durP2;ratioP2
11255;SDS011;5685;52.384;13.420;2023-04-03T00:00:32;71.00;;;38.13;;
11255;SDS011;5685;52.384;13.420;2023-04-03T00:03:35;71.03;;;38.03;;
11255;SDS011;5685;52.384;13.420;2023-04-03T00:06:39;70.83;;;38.10;;
11255;SDS011;5685;52.384;13.420;2023-04-03T00:09:42;70.57;;;37.80;;
11255;SDS011;5685;52.384;13.420;2023-04-03T00:12:44;70.93;;;38.00;;
11255;SDS011;5685;52.384;13.420;2023-04-03T00:15:47;70.93;;;38.13;;
11255;SDS011;5685;52.384;13.420;2023-04-03T00:18:49;70.23;;;37.73;;
11255;SDS011;5685;52.384;13.420;2023-04-03T00:21:54;70.77;;;38.03;;
11255;SDS011;5685;52.384;13.420;2023-04-03T00:24:56;70.77;;;38.00;;
11255;SDS011;5685;52.384;13.420;2023-04-03T00:27:59;70.73;;;38.10;;
11255;SDS011;5685;52.384;13.420;2023-04-03T00:31:02;70.70;;;38.00;;
11255;SDS011;5685;52.384;13.420;2023-04-03T00:34:05;70.83;;;38.10;;
11255;SDS011;5685;52.384;13.420;2023-04-03T00:37:09;70.37;;;37.83;;
11255;SDS011;5685;52.384;13.420;2023-04-03T00:40:12;70.77;;;38.00;;
11255;SDS011;5685;52.384;13.420;2023-04-03T00:43:17;71.07;;;38.13;;
11255;SDS011;5685;52.384;13.420;2023-04-03T00:46:21;70.40;;;37.97;;
11255;SDS011;5685;52.384;13.420;2023-04-03T00:49:23;70.57;;;37.80;;
11255;SDS011;5685;52.384;13.420;2023-04-03T00:52:28;71.00;;;38.07;;
11255;SDS011;5685;52.384;13.420;2023-04-03T00:55:32;70.80;;;38.07;;
11255;SDS011;5685;52.384;13.420;2023-04-03T00:58:37;70.80;;;38.00;;
11255;SDS011;5685;52.384;13.420;2023-04-03T01:01:41;70.80;;;37.97;;
11255;SDS011;5685;52.384;13.420;2023-04-03T01:04:44;70.93;;;38.00;;
11255;SDS011;5685;52.384;13.420;2023-04-03T01:07:48;70.90;;;38.00;;
11255;SDS011;5685;52.384;13.420;2023-04-03T01:10:51;70.57;;;37.77;;
11255;SDS011;5685;52.384;13.420;2023-04-03T01:13:54;70.40;;;37.67;;
11255;SDS011;5685;52.384;13.420;2023-04-03T01:16:57;70.63;;;38.00;;
11255;SDS011;5685;52.384;13.420;2023-04-03T01:20:13;71.37;;;38.20;;
11255;SDS011;5685;52.384;13.420;2023-04-03T01:23:39;70.47;;;37.77;;
11255;SDS011;5685;52.384;13.420;2023-04-03T01:26:53;70.37;;;37.60;;
11255;SDS011;5685;52.384;13.420;2023-04-03T01:29:55;71.13;;;38.03;;
11255;SDS011;5685;52.384;13.420;2023-04-03T01:32:59;70.77;;;37.77;;
11255;SDS011;5685;52.384;13.420;2023-04-03T01:36:02;70.60;;;37.63;;
11255;SDS011;5685;52.384;13.420;2023-04-03T01:39:06;71.07;;;37.90;;
11255;SDS011;5685;52.384;13.420;2023-04-03T01:42:09;71.03;;;37.93;;
11255;SDS011;5685;52.384;13.420;2023-04-03T01:45:12;71.40;;;38.10;;
11255;SDS011;5685;52.384;13.420;2023-04-03T01:48:17;71.10;;;38.00;;
11255;SDS011;5685;52.384;13.420;2023-04-03T01:51:19;70.33;;;37.53;;
11255;SDS011;5685;52.384;13.420;2023-04-03T01:54:22;70.57;;;37.70;;
11255;SDS011;5685;52.384;13.420;2023-04-03T01:57:25;70.87;;;37.70;;
11255;SDS011;5685;52.384;13.420;2023-04-03T02:00:28;71.17;;;37.87;;
11255;SDS011;5685;52.384;13.420;2023-04-03T02:03:32;71.00;;;37.97;;
11255;SDS011;5685;52.384;13.420;2023-04-03T02:06:35;71.20;;;38.07;;
11255;SDS011;5685;52.384;13.420;2023-04-03T02:09:38;71.00;;;37.90;;
11255;SDS011;5685;52.384;13.420;2023-04-03T02:12:40;70.97;;;37.80;;
11255;SDS011;5685;52.384;13.420;2023-04-03T02:15:43;71.00;;;37.83;;
11255;SDS011;5685;52.384;13.420;2023-04-03T02:18:48;71.23;;;38.00;;
11255;SDS011;5685;52.384;13.420;2023-04-03T02:21:51;70.87;;;37.73;;
11255;SDS011;5685;52.384;13.420;2023-04-03T02:24:53;70.90;;;37.73;;
11255;SDS011;5685;52.384;13.420;2023-04-03T02:27:56;70.83;;;37.70;;
11255;SDS011;5685;52.384;13.420;2023-04-03T02:30:59;71.27;;;37.93;;
11255;SDS011;5685;52.384;13.420;2023-04-03T02:34:03;71.20;;;37.90;;
11255;SDS011;5685;52.384;13.420;2023-04-03T02:37:06;71.37;;;37.90;;
11255;SDS011;5685;52.384;13.420;2023-04-03T02:40:09;71.50;;;37.97;;
11255;SDS011;5685;52.384;13.420;2023-04-03T02:43:12;71.20;;;37.83;;
11255;SDS011;5685;52.384;13.420;2023-04-03T02:46:15;71.50;;;37.90;;
11255;SDS011;5685;52.384;13.420;2023-04-03T02:49:19;71.10;;;37.77;;
11255;SDS011;5685;52.384;13.420;2023-04-03T02:52:22;71.30;;;37.80;;
11255;SDS011;5685;52.384;13.420;2023-04-03T02:55:24;71.20;;;37.83;;
11255;SDS011;5685;52.384;13.420;2023-04-03T02:58:27;70.80;;;37.60;;
11255;SDS011;5685;52.384;13.420;2023-04-03T03:01:30;71.27;;;37.83;;
11255;SDS011;5685;52.384;13.420;2023-04-03T03:04:34;71.53;;;38.03;;
11255;SDS011;5685;52.384;13.420;2023-04-03T03:07:37;71.07;;;37.73;;
11255;SDS011;5685;52.384;13.420;2023-04-03T03:10:39;71.37;;;37.90;;
11255;SDS011;5685;52.384;13.420;2023-04-03T03:13:42;70.70;;;37.50;;
11255;SDS011;5685;52.384;13.420;2023-04-03T03:16:46;70.70;;;37.40;;
11255;SDS011;5685;52.384;13.420;2023-04-03T03:19:50;71.60;;;37.87;;
11255;SDS011;5685;52.384;13.420;2023-04-03T03:22:53;71.20;;;37.77;;
11255;SDS011;5685;52.384;13.420;2023-04-03T03:25:56;71.30;;;37.80;;
11255;SDS011;5685;52.384;13.420;2023-04-03T03:28:59;71.07;;;37.43;;
11255;SDS011;5685;52.384;13.420;2023-04-03T03:32:02;71.13;;;37.67;;
11255;SDS011;5685;52.384;13.420;2023-04-03T03:35:07;70.80;;;37.50;;
11255;SDS011;5685;52.384;13.420;2023-04-03T03:38:10;70.87;;;37.43;;
11255;SDS011;5685;52.384;13.420;2023-04-03T03:41:13;71.40;;;37.63;;
11255;SDS011;5685;52.384;13.420;2023-04-03T03:44:15;70.50;;;37.27;;
11255;SDS011;5685;52.384;13.420;2023-04-03T03:47:18;71.17;;;37.40;;
11255;SDS011;5685;52.384;13.420;2023-04-03T03:50:22;71.00;;;37.50;;
11255;SDS011;5685;52.384;13.420;2023-04-03T03:53:25;70.80;;;37.30;;
11255;SDS011;5685;52.384;13.420;2023-04-03T03:56:27;71.07;;;37.57;;
11255;SDS011;5685;52.384;13.420;2023-04-03T03:59:30;71.30;;;37.60;;
11255;SDS011;5685;52.384;13.420;2023-04-03T04:02:33;71.20;;;37.50;;
11255;SDS011;5685;52.384;13.420;2023-04-03T04:05:37;70.80;;;37.30;;
11255;SDS011;5685;52.384;13.420;2023-04-03T04:09:21;70.97;;;37.27;;
11255;SDS011;5685;52.384;13.420;2023-04-03T04:12:24;71.00;;;37.40;;
11255;SDS011;5685;52.384;13.420;2023-04-03T04:15:26;70.87;;;37.40;;
11255;SDS011;5685;52.384;13.420;2023-04-03T04:18:29;70.93;;;37.43;;
11255;SDS011;5685;52.384;13.420;2023-04-03T04:21:32;70.47;;;37.10;;
11255;SDS011;5685;52.384;13.420;2023-04-03T04:24:36;71.10;;;37.50;;
11255;SDS011;5685;52.384;13.420;2023-04-03T04:27:38;71.37;;;37.50;;
11255;SDS011;5685;52.384;13.420;2023-04-03T04:30:41;70.90;;;37.27;;
11255;SDS011;5685;52.384;13.420;2023-04-03T04:33:44;71.27;;;37.43;;
11255;SDS011;5685;52.384;13.420;2023-04-03T04:36:46;71.17;;;37.33;;
11255;SDS011;5685;52.384;13.420;2023-04-03T04:39:51;71.27;;;37.47;;
11255;SDS011;5685;52.384;13.420;2023-04-03T04:42:53;71.23;;;37.50;;
11255;SDS011;5685;52.384;13.420;2023-04-03T04:46:00;71.20;;;37.47;;
11255;SDS011;5685;52.384;13.420;2023-04-03T04:49:03;71.13;;;37.47;;
11255;SDS011;5685;52.384;13.420;2023-04-03T04:52:06;70.83;;;37.33;;
11255;SDS011;5685;52.384;13.420;2023-04-03T04:55:10;71.80;;;37.70;;
11255;SDS011;5685;52.384;13.420;2023-04-03T04:58:12;70.77;;;37.20;;
11255;SDS011;5685;52.384;13.420;2023-04-03T05:01:15;70.53;;;37.20;;
11255;SDS011;5685;52.384;13.420;2023-04-03T05:04:18;71.37;;;37.60;;
11255;SDS011;5685;52.384;13.420;2023-04-03T05:07:21;71.10;;;37.47;;
11255;SDS011;5685;52.384;13.420;2023-04-03T05:10:25;71.27;;;37.40;;
11255;SDS011;5685;52.384;13.420;2023-04-03T05:13:27;71.20;;;37.40;;
11255;SDS011;5685;52.384;13.420;2023-04-03T05:16:30;71.50;;;37.40;;
11255;SDS011;5685;52.384;13.420;2023-04-03T05:19:33;71.30;;;37.50;;
11255;SDS011;5685;52.384;13.420;2023-04-03T05:22:35;70.87;;;37.20;;
11255;SDS011;5685;52.384;13.420;2023-04-03T05:25:40;70.63;;;37.17;;
11255;SDS011;5685;52.384;13.420;2023-04-03T05:28:44;71.07;;;37.30;;
11255;SDS011;5685;52.384;13.420;2023-04-03T05:31:48;70.83;;;37.10;;
11255;SDS011;5685;52.384;13.420;2023-04-03T05:34:51;71.33;;;37.50;;
11255;SDS011;5685;52.384;13.420;2023-04-03T05:37:54;71.53;;;37.60;;
11255;SDS011;5685;52.384;13.420;2023-04-03T05:40:58;71.07;;;37.40;;
11255;SDS011;5685;52.384;13.420;2023-04-03T05:44:01;70.77;;;37.13;;
11255;SDS011;5685;52.384;13.420;2023-04-03T05:47:03;70.90;;;37.20;;
11255;SDS011;5685;52.384;13.420;2023-04-03T05:50:06;70.77;;;37.17;;
11255;SDS011;5685;52.384;13.420;2023-04-03T05:53:10;71.27;;;37.37;;
11255;SDS011;5685;52.384;13.420;2023-04-03T05:56:18;71.17;;;37.30;;
11255;SDS011;5685;52.384;13.420;2023-04-03T05:59:21;71.27;;;37.67;;
11255;SDS011;5685;52.384;13.420;2023-04-03T06:02:24;70.50;;;37.00;;
11255;SDS011;5685;52.384;13.420;2023-04-03T06:05:27;70.73;;;37.13;;
11255;SDS011;5685;52.384;13.420;2023-04-03T06:08:30;71.33;;;37.40;;
11255;SDS011;5685;52.384;13.420;2023-04-03T06:11:34;71.17;;;37.30;;
11255;SDS011;5685;52.384;13.420;2023-04-03T06:14:36;71.07;;;37.30;;
11255;SDS011;5685;52.384;13.420;2023-04-03T06:17:39;71.57;;;37.47;;
11255;SDS011;5685;52.384;13.420;2023-04-03T06:20:42;70.70;;;37.10;;
11255;SDS011;5685;52.384;13.420;2023-04-03T06:23:44;70.60;;;37.07;;
11255;SDS011;5685;52.384;13.420;2023-04-03T06:26:48;71.33;;;37.50;;
11255;SDS011;5685;52.384;13.420;2023-04-03T06:29:52;71.20;;;37.50;;
11255;SDS011;5685;52.384;13.420;2023-04-03T06:32:55;70.97;;;37.30;;
11255;SDS011;5685;52.384;13.420;2023-04-03T06:35:59;71.43;;;37.57;;
11255;SDS011;5685;52.384;13.420;2023-04-03T06:39:04;70.80;;;37.23;;
11255;SDS011;5685;52.384;13.420;2023-04-03T06:42:08;70.73;;;37.17;;
11255;SDS011;5685;52.384;13.420;2023-04-03T06:45:11;71.33;;;37.40;;
11255;SDS011;5685;52.384;13.420;2023-04-03T06:48:14;70.93;;;37.27;;
11255;SDS011;5685;52.384;13.420;2023-04-03T06:51:17;71.00;;;37.27;;
11255;SDS011;5685;52.384;13.420;2023-04-03T06:54:20;70.97;;;37.27;;
11255;SDS011;5685;52.384;13.420;2023-04-03T06:57:24;71.10;;;37.20;;
11255;SDS011;5685;52.384;13.420;2023-04-03T07:00:27;71.10;;;37.27;;
11255;SDS011;5685;52.384;13.420;2023-04-03T07:03:30;71.53;;;37.60;;
11255;SDS011;5685;52.384;13.420;2023-04-03T07:06:32;71.20;;;37.37;;
11255;SDS011;5685;52.384;13.420;2023-04-03T07:09:36;70.70;;;37.10;;
11255;SDS011;5685;52.384;13.420;2023-04-03T07:12:40;71.37;;;37.37;;
11255;SDS011;5685;52.384;13.420;2023-04-03T07:15:42;71.10;;;37.33;;
11255;SDS011;5685;52.384;13.420;2023-04-03T07:18:45;70.37;;;37.00;;
11255;SDS011;5685;52.384;13.420;2023-04-03T07:21:48;70.73;;;37.20;;
11255;SDS011;5685;52.384;13.420;2023-04-03T07:24:50;70.13;;;36.80;;
11255;SDS011;5685;52.384;13.420;2023-04-03T07:27:55;71.00;;;37.37;;
11255;SDS011;5685;52.384;13.420;2023-04-03T07:30:59;71.00;;;37.30;;
11255;SDS011;5685;52.384;13.420;2023-04-03T07:34:03;70.57;;;37.20;;
11255;SDS011;5685;52.384;13.420;2023-04-03T07:37:06;71.07;;;37.30;;
11255;SDS011;5685;52.384;13.420;2023-04-03T07:40:09;70.90;;;37.20;;
11255;SDS011;5685;52.384;13.420;2023-04-03T07:43:13;70.97;;;37.30;;
11255;SDS011;5685;52.384;13.420;2023-04-03T07:46:16;70.70;;;37.17;;
11255;SDS011;5685;52.384;13.420;2023-04-03T07:49:19;71.07;;;37.37;;
11255;SDS011;5685;52.384;13.420;2023-04-03T07:52:23;71.10;;;37.40;;
11255;SDS011;5685;52.384;13.420;2023-04-03T07:55:26;71.03;;;37.30;;
11255;SDS011;5685;52.384;13.420;2023-04-03T07:58:30;70.50;;;37.00;;
11255;SDS011;5685;52.384;13.420;2023-04-03T08:01:33;71.03;;;37.33;;
11255;SDS011;5685;52.384;13.420;2023-04-03T08:04:35;71.17;;;37.80;;
11255;SDS011;5685;52.384;13.420;2023-04-03T08:07:38;71.10;;;37.27;;
11255;SDS011;5685;52.384;13.420;2023-04-03T08:10:40;71.43;;;37.50;;
11255;SDS011;5685;52.384;13.420;2023-04-03T08:13:45;71.60;;;37.57;;
11255;SDS011;5685;52.384;13.420;2023-04-03T08:16:47;71.27;;;37.37;;
11255;SDS011;5685;52.384;13.420;2023-04-03T08:19:50;71.33;;;37.47;;
11255;SDS011;5685;52.384;13.420;2023-04-03T08:22:53;71.03;;;37.23;;
11255;SDS011;5685;52.384;13.420;2023-04-03T08:25:55;71.10;;;37.40;;
11255;SDS011;5685;52.384;13.420;2023-04-03T08:29:00;71.20;;;37.27;;
11255;SDS011;5685;52.384;13.420;2023-04-03T08:32:02;70.97;;;37.27;;
11255;SDS011;5685;52.384;13.420;2023-04-03T08:35:05;71.37;;;37.47;;
11255;SDS011;5685;52.384;13.420;2023-04-03T08:38:09;71.10;;;37.43;;
11255;SDS011;5685;52.384;13.420;2023-04-03T08:41:13;70.90;;;37.13;;
11255;SDS011;5685;52.384;13.420;2023-04-03T08:44:21;70.40;;;36.97;;
11255;SDS011;5685;52.384;13.420;2023-04-03T08:47:28;70.93;;;37.20;;
11255;SDS011;5685;52.384;13.420;2023-04-03T08:50:37;71.83;;;37.70;;
11255;SDS011;5685;52.384;13.420;2023-04-03T08:53:43;70.77;;;37.10;;
11255;SDS011;5685;52.384;13.420;2023-04-03T08:56:48;70.67;;;37.10;;
11255;SDS011;5685;52.384;13.420;2023-04-03T08:59:52;70.80;;;37.10;;
11255;SDS011;5685;52.384;13.420;2023-04-03T09:02:55;70.63;;;37.07;;
11255;SDS011;5685;52.384;13.420;2023-04-03T09:06:00;70.80;;;37.27;;
11255;SDS011;5685;52.384;13.420;2023-04-03T09:09:07;70.73;;;37.23;;
11255;SDS011;5685;52.384;13.420;2023-04-03T09:12:15;70.93;;;37.30;;
11255;SDS011;5685;52.384;13.420;2023-04-03T09:15:21;70.80;;;37.17;;
11255;SDS011;5685;52.384;13.420;2023-04-03T09:18:26;70.93;;;37.23;;
11255;SDS011;5685;52.384;13.420;2023-04-03T09:21:34;71.07;;;37.37;;
11255;SDS011;5685;52.384;13.420;2023-04-03T09:24:38;71.37;;;37.50;;
11255;SDS011;5685;52.384;13.420;2023-04-03T09:27:41;70.87;;;37.20;;
11255;SDS011;5685;52.384;13.420;2023-04-03T09:30:45;70.70;;;37.10;;
11255;SDS011;5685;52.384;13.420;2023-04-03T09:33:48;70.70;;;37.10;;
11255;SDS011;5685;52.384;13.420;2023-04-03T09:36:53;71.23;;;37.37;;
11255;SDS011;5685;52.384;13.420;2023-04-03T09:39:57;71.13;;;37.27;;
11255;SDS011;5685;52.384;13.420;2023-04-03T09:43:01;71.40;;;37.53;;
11255;SDS011;5685;52.384;13.420;2023-04-03T09:46:24;71.00;;;37.20;;
11255;SDS011;5685;52.384;13.420;2023-04-03T09:49:30;70.83;;;37.13;;
11255;SDS011;5685;52.384;13.420;2023-04-03T09:52:32;71.27;;;37.37;;
11255;SDS011;5685;52.384;13.420;2023-04-03T09:55:41;71.30;;;37.40;;
11255;SDS011;5685;52.384;13.420;2023-04-03T09:58:45;70.47;;;36.90;;
11255;SDS011;5685;52.384;13.420;2023-04-03T10:01:58;71.07;;;37.37;;
11255;SDS011;5685;52.384;13.420;2023-04-03T10:05:04;70.87;;;37.23;;
11255;SDS011;5685;52.384;13.420;2023-04-03T10:08:27;70.80;;;37.13;;
11255;SDS011;5685;52.384;13.420;2023-04-03T10:11:31;70.93;;;37.17;;
11255;SDS011;5685;52.384;13.420;2023-04-03T10:14:34;71.47;;;37.50;;
11255;SDS011;5685;52.384;13.420;2023-04-03T10:17:42;70.87;;;37.20;;
11255;SDS011;5685;52.384;13.420;2023-04-03T10:20:51;71.10;;;37.27;;
11255;SDS011;5685;52.384;13.420;2023-04-03T10:23:56;71.57;;;37.57;;
11255;SDS011;5685;52.384;13.420;2023-04-03T10:27:05;71.30;;;37.40;;
11255;SDS011;5685;52.384;13.420;2023-04-03T10:30:27;71.37;;;37.40;;
11255;SDS011;5685;52.384;13.420;2023-04-03T10:33:39;70.70;;;37.03;;
11255;SDS011;5685;52.384;13.420;2023-04-03T10:36:48;71.00;;;37.27;;
11255;SDS011;5685;52.384;13.420;2023-04-03T10:39:57;71.13;;;37.30;;
11255;SDS011;5685;52.384;13.420;2023-04-03T10:43:04;71.10;;;37.20;;
11255;SDS011;5685;52.384;13.420;2023-04-03T10:46:11;70.63;;;37.10;;
11255;SDS011;5685;52.384;13.420;2023-04-03T10:49:25;70.80;;;37.13;;
11255;SDS011;5685;52.384;13.420;2023-04-03T10:52:35;71.10;;;37.30;;
11255;SDS011;5685;52.384;13.420;2023-04-03T10:55:42;70.80;;;37.20;;
11255;SDS011;5685;52.384;13.420;2023-04-03T10:58:48;71.17;;;37.23;;
11255;SDS011;5685;52.384;13.420;2023-04-03T11:01:55;71.13;;;37.30;;
11255;SDS011;5685;52.384;13.420;2023-04-03T11:05:02;71.60;;;37.53;;
11255;SDS011;5685;52.384;13.420;2023-04-03T11:08:10;70.90;;;37.10;;
11255;SDS011;5685;52.384;13.420;2023-04-03T11:11:17;70.67;;;36.93;;
11255;SDS011;5685;52.384;13.420;2023-04-03T11:14:24;71.33;;;37.23;;
11255;SDS011;5685;52.384;13.420;2023-04-03T11:17:30;71.37;;;37.40;;
11255;SDS011;5685;52.384;13.420;2023-04-03T11:20:39;71.33;;;37.33;;
11255;SDS011;5685;52.384;13.420;2023-04-03T11:23:46;71.57;;;37.53;;
11255;SDS011;5685;52.384;13.420;2023-04-03T11:26:49;71.30;;;37.40;;
11255;SDS011;5685;52.384;13.420;2023-04-03T11:29:53;71.00;;;37.17;;
11255;SDS011;5685;52.384;13.420;2023-04-03T11:33:03;71.33;;;37.37;;
11255;SDS011;5685;52.384;13.420;2023-04-03T11:36:21;71.10;;;37.17;;
11255;SDS011;5685;52.384;13.420;2023-04-03T11:39:26;71.67;;;37.53;;
11255;SDS011;5685;52.384;13.420;2023-04-03T11:42:33;71.37;;;37.30;;
11255;SDS011;5685;52.384;13.420;2023-04-03T11:45:40;71.40;;;37.30;;
11255;SDS011;5685;52.384;13.420;2023-04-03T11:48:51;71.40;;;37.27;;
11255;SDS011;5685;52.384;13.420;2023-04-03T11:51:57;71.50;;;37.30;;
11255;SDS011;5685;52.384;13.420;2023-04-03T11:55:01;70.90;;;37.03;;
11255;SDS011;5685;52.384;13.420;2023-04-03T11:58:04;71.30;;;37.30;;
11255;SDS011;5685;52.384;13.420;2023-04-03T12:04:45;71.43;;;37.40;;
11255;SDS011;5685;52.384;13.420;2023-04-03T12:08:29;71.67;;;37.50;;
11255;SDS011;5685;52.384;13.420;2023-04-03T12:11:44;71.70;;;37.43;;
11255;SDS011;5685;52.384;13.420;2023-04-03T12:14:47;71.47;;;37.37;;
11255;SDS011;5685;52.384;13.420;2023-04-03T12:17:50;71.43;;;37.30;;
11255;SDS011;5685;52.384;13.420;2023-04-03T12:20:54;71.23;;;37.27;;
11255;SDS011;5685;52.384;13.420;2023-04-03T12:24:01;71.87;;;37.60;;
11255;SDS011;5685;52.384;13.420;2023-04-03T12:27:09;71.50;;;37.30;;
11255;SDS011;5685;52.384;13.420;2023-04-03T12:30:26;71.53;;;37.50;;
11255;SDS011;5685;52.384;13.420;2023-04-03T12:33:32;71.83;;;37.40;;
11255;SDS011;5685;52.384;13.420;2023-04-03T12:36:51;71.50;;;37.53;;
11255;SDS011;5685;52.384;13.420;2023-04-03T12:40:12;72.00;;;37.73;;
11255;SDS011;5685;52.384;13.420;2023-04-03T12:43:34;71.50;;;37.43;;
11255;SDS011;5685;52.384;13.420;2023-04-03T12:46:44;71.60;;;37.40;;
11255;SDS011;5685;52.384;13.420;2023-04-03T12:49:49;71.57;;;37.50;;
11255;SDS011;5685;52.384;13.420;2023-04-03T12:52:56;72.00;;;37.70;;
11255;SDS011;5685;52.384;13.420;2023-04-03T12:59:24;71.37;;;37.47;;
11255;SDS011;5685;52.384;13.420;2023-04-03T13:02:28;71.63;;;37.40;;
11255;SDS011;5685;52.384;13.420;2023-04-03T13:05:31;71.90;;;37.60;;
11255;SDS011;5685;52.384;13.420;2023-04-03T13:08:35;71.13;;;37.20;;
11255;SDS011;5685;52.384;13.420;2023-04-03T13:11:40;70.80;;;37.10;;
11255;SDS011;5685;52.384;13.420;2023-04-03T13:14:51;71.27;;;37.27;;
11255;SDS011;5685;52.384;13.420;2023-04-03T13:17:55;71.50;;;37.37;;
11255;SDS011;5685;52.384;13.420;2023-04-03T13:21:00;71.77;;;37.47;;
11255;SDS011;5685;52.384;13.420;2023-04-03T13:24:05;71.23;;;37.30;;
11255;SDS011;5685;52.384;13.420;2023-04-03T13:27:11;71.37;;;37.37;;
11255;SDS011;5685;52.384;13.420;2023-04-03T13:30:22;71.97;;;37.50;;
11255;SDS011;5685;52.384;13.420;2023-04-03T13:33:28;71.83;;;37.57;;
11255;SDS011;5685;52.384;13.420;2023-04-03T13:36:33;72.07;;;37.60;;
11255;SDS011;5685;52.384;13.420;2023-04-03T13:39:37;71.77;;;37.57;;
11255;SDS011;5685;52.384;13.420;2023-04-03T13:42:41;72.13;;;37.70;;
11255;SDS011;5685;52.384;13.420;2023-04-03T13:45:53;72.03;;;37.70;;
11255;SDS011;5685;52.384;13.420;2023-04-03T13:48:57;71.97;;;37.50;;
11255;SDS011;5685;52.384;13.420;2023-04-03T13:52:00;71.40;;;37.30;;
11255;SDS011;5685;52.384;13.420;2023-04-03T13:55:15;72.07;;;37.70;;
11255;SDS011;5685;52.384;13.420;2023-04-03T13:58:22;71.80;;;37.60;;
11255;SDS011;5685;52.384;13.420;2023-04-03T14:01:25;71.90;;;37.63;;
11255;SDS011;5685;52.384;13.420;2023-04-03T14:04:44;72.03;;;37.73;;
11255;SDS011;5685;52.384;13.420;2023-04-03T14:07:49;71.67;;;37.53;;
11255;SDS011;5685;52.384;13.420;2023-04-03T14:10:52;71.90;;;37.53;;
11255;SDS011;5685;52.384;13.420;2023-04-03T14:13:57;71.70;;;37.43;;
11255;SDS011;5685;52.384;13.420;2023-04-03T14:17:03;71.43;;;37.43;;
11255;SDS011;5685;52.384;13.420;2023-04-03T14:20:14;72.20;;;37.80;;
11255;SDS011;5685;52.384;13.420;2023-04-03T14:23:17;72.27;;;37.90;;
11255;SDS011;5685;52.384;13.420;2023-04-03T14:26:20;72.27;;;37.90;;
11255;SDS011;5685;52.384;13.420;2023-04-03T14:29:28;72.07;;;37.77;;
11255;SDS011;5685;52.384;13.420;2023-04-03T14:32:30;72.20;;;37.87;;
11255;SDS011;5685;52.384;13.420;2023-04-03T14:35:33;72.23;;;37.83;;
11255;SDS011;5685;52.384;13.420;2023-04-03T14:38:35;71.80;;;37.67;;
11255;SDS011;5685;52.384;13.420;2023-04-03T14:41:38;71.97;;;37.70;;
11255;SDS011;5685;52.384;13.420;2023-04-03T14:44:42;71.80;;;37.60;;
11255;SDS011;5685;52.384;13.420;2023-04-03T14:47:46;71.53;;;37.57;;
11255;SDS011;5685;52.384;13.420;2023-04-03T14:50:51;71.63;;;37.60;;
11255;SDS011;5685;52.384;13.420;2023-04-03T14:53:54;71.50;;;37.50;;
11255;SDS011;5685;52.384;13.420;2023-04-03T14:56:58;72.07;;;37.80;;
11255;SDS011;5685;52.384;13.420;2023-04-03T15:00:03;71.33;;;37.53;;
11255;SDS011;5685;52.384;13.420;2023-04-03T15:03:11;71.80;;;37.83;;
11255;SDS011;5685;52.384;13.420;2023-04-03T15:06:15;71.50;;;37.70;;
11255;SDS011;5685;52.384;13.420;2023-04-03T15:09:19;71.60;;;37.80;;
11255;SDS011;5685;52.384;13.420;2023-04-03T15:12:23;71.50;;;37.80;;
11255;SDS011;5685;52.384;13.420;2023-04-03T15:15:28;72.00;;;38.03;;
11255;SDS011;5685;52.384;13.420;2023-04-03T15:18:32;71.60;;;37.83;;
11255;SDS011;5685;52.384;13.420;2023-04-03T15:21:39;71.33;;;37.63;;
11255;SDS011;5685;52.384;13.420;2023-04-03T15:24:41;71.60;;;37.73;;
11255;SDS011;5685;52.384;13.420;2023-04-03T15:27:44;71.13;;;37.47;;
11255;SDS011;5685;52.384;13.420;2023-04-03T15:30:48;71.57;;;37.67;;
11255;SDS011;5685;52.384;13.420;2023-04-03T15:33:51;71.67;;;37.80;;
11255;SDS011;5685;52.384;13.420;2023-04-03T15:36:54;71.17;;;37.40;;
11255;SDS011;5685;52.384;13.420;2023-04-03T15:39:56;71.27;;;37.47;;
11255;SDS011;5685;52.384;13.420;2023-04-03T15:42:59;71.63;;;37.77;;
11255;SDS011;5685;52.384;13.420;2023-04-03T15:46:03;71.77;;;37.77;;
11255;SDS011;5685;52.384;13.420;2023-04-03T15:49:06;71.73;;;37.63;;
11255;SDS011;5685;52.384;13.420;2023-04-03T15:52:08;71.10;;;37.40;;
11255;SDS011;5685;52.384;13.420;2023-04-03T15:55:11;71.50;;;37.50;;
11255;SDS011;5685;52.384;13.420;2023-04-03T15:58:14;71.70;;;37.87;;
11255;SDS011;5685;52.384;13.420;2023-04-03T16:01:18;71.07;;;37.43;;
11255;SDS011;5685;52.384;13.420;2023-04-03T16:04:21;71.50;;;37.63;;
11255;SDS011;5685;52.384;13.420;2023-04-03T16:07:24;71.57;;;37.57;;
11255;SDS011;5685;52.384;13.420;2023-04-03T16:10:26;71.77;;;37.73;;
11255;SDS011;5685;52.384;13.420;2023-04-03T16:13:29;71.63;;;37.70;;
11255;SDS011;5685;52.384;13.420;2023-04-03T16:16:34;71.47;;;37.57;;
11255;SDS011;5685;52.384;13.420;2023-04-03T16:19:37;71.90;;;37.77;;
11255;SDS011;5685;52.384;13.420;2023-04-03T16:22:40;71.63;;;37.77;;
11255;SDS011;5685;52.384;13.420;2023-04-03T16:25:43;71.50;;;37.60;;
11255;SDS011;5685;52.384;13.420;2023-04-03T16:28:46;72.00;;;37.70;;
11255;SDS011;5685;52.384;13.420;2023-04-03T16:31:51;71.87;;;37.90;;
11255;SDS011;5685;52.384;13.420;2023-04-03T16:34:53;71.23;;;37.50;;
11255;SDS011;5685;52.384;13.420;2023-04-03T16:37:56;71.53;;;37.60;;
11255;SDS011;5685;52.384;13.420;2023-04-03T16:40:59;71.70;;;37.70;;
11255;SDS011;5685;52.384;13.420;2023-04-03T16:44:04;71.83;;;37.83;;
11255;SDS011;5685;52.384;13.420;2023-04-03T16:47:09;72.13;;;37.90;;
11255;SDS011;5685;52.384;13.420;2023-04-03T16:50:13;72.00;;;37.90;;
11255;SDS011;5685;52.384;13.420;2023-04-03T16:53:16;72.10;;;37.93;;
11255;SDS011;5685;52.384;13.420;2023-04-03T16:56:19;72.20;;;37.90;;
11255;SDS011;5685;52.384;13.420;2023-04-03T16:59:22;72.00;;;37.83;;
11255;SDS011;5685;52.384;13.420;2023-04-03T17:02:26;72.17;;;37.90;;
11255;SDS011;5685;52.384;13.420;2023-04-03T17:05:29;72.07;;;37.90;;
11255;SDS011;5685;52.384;13.420;2023-04-03T17:08:32;71.43;;;37.57;;
11255;SDS011;5685;52.384;13.420;2023-04-03T17:11:35;71.27;;;37.60;;
11255;SDS011;5685;52.384;13.420;2023-04-03T17:14:38;71.63;;;37.80;;
11255;SDS011;5685;52.384;13.420;2023-04-03T17:17:42;72.53;;;38.20;;
11255;SDS011;5685;52.384;13.420;2023-04-03T17:20:44;72.33;;;38.10;;
11255;SDS011;5685;52.384;13.420;2023-04-03T17:23:48;71.47;;;37.60;;
11255;SDS011;5685;52.384;13.420;2023-04-03T17:26:52;71.17;;;37.40;;
11255;SDS011;5685;52.384;13.420;2023-04-03T17:29:55;71.90;;;37.80;;
11255;SDS011;5685;52.384;13.420;2023-04-03T17:33:00;72.03;;;37.90;;
11255;SDS011;5685;52.384;13.420;2023-04-03T17:36:03;72.17;;;37.93;;
11255;SDS011;5685;52.384;13.420;2023-04-03T17:39:07;72.30;;;38.00;;
11255;SDS011;5685;52.384;13.420;2023-04-03T17:42:09;72.03;;;37.90;;
11255;SDS011;5685;52.384;13.420;2023-04-03T17:45:12;72.30;;;38.03;;
11255;SDS011;5685;52.384;13.420;2023-04-03T17:48:16;72.73;;;38.17;;
11255;SDS011;5685;52.384;13.420;2023-04-03T17:51:20;72.60;;;38.10;;
11255;SDS011;5685;52.384;13.420;2023-04-03T17:54:24;72.53;;;38.13;;
11255;SDS011;5685;52.384;13.420;2023-04-03T17:57:26;72.23;;;37.90;;
11255;SDS011;5685;52.384;13.420;2023-04-03T18:00:30;72.30;;;37.90;;
11255;SDS011;5685;52.384;13.420;2023-04-03T18:03:34;72.83;;;38.20;;
11255;SDS011;5685;52.384;13.420;2023-04-03T18:06:38;72.80;;;38.23;;